sensor_id;sensor_type;location;lat;lon;timestamp;P1;durP1;ratioP1;P2;durP2;ratioP2
14722;SDS011;7452;55.594;12.986;2023-04-07T00:01:59;5.77;;;3.57;;
14722;SDS011;7452;55.594;12.986;2023-04-07T00:04:26;4.60;;;3.50;;
14722;SDS011;7452;55.594;12.986;2023-04-07T00:06:53;5.23;;;3.00;;
14722;SDS011;7452;55.594;12.986;2023-04-07T00:09:20;5.47;;;3.60;;
14722;SDS011;7452;55.594;12.986;2023-04-07T00:11:48;5.63;;;3.00;;
14722;SDS011;7452;55.594;12.986;2023-04-07T00:14:16;4.90;;;3.03;;
14722;SDS011;7452;55.594;12.986;2023-04-07T00:16:42;4.50;;;2.93;;
14722;SDS011;7452;55.594;12.986;2023-04-07T00:19:09;4.80;;;3.30;;
14722;SDS011;7452;55.594;12.986;2023-04-07T00:21:36;4.37;;;2.97;;
14722;SDS011;7452;55.594;12.986;2023-04-07T00:24:03;4.97;;;3.43;;
14722;SDS011;7452;55.594;12.986;2023-04-07T00:26:30;5.03;;;3.30;;
14722;SDS011;7452;55.594;12.986;2023-04-07T00:28:59;4.73;;;3.17;;
14722;SDS011;7452;55.594;12.986;2023-04-07T00:31:25;4.50;;;3.17;;
14722;SDS011;7452;55.594;12.986;2023-04-07T00:33:52;5.13;;;3.37;;
14722;SDS011;7452;55.594;12.986;2023-04-07T00:36:19;4.17;;;3.37;;
14722;SDS011;7452;55.594;12.986;2023-04-07T00:38:47;4.70;;;3.40;;
14722;SDS011;7452;55.594;12.986;2023-04-07T00:41:13;6.57;;;3.10;;
14722;SDS011;7452;55.594;12.986;2023-04-07T00:43:40;5.70;;;3.07;;
14722;SDS011;7452;55.594;12.986;2023-04-07T00:46:09;3.50;;;3.00;;
14722;SDS011;7452;55.594;12.986;2023-04-07T00:48:36;3.87;;;2.90;;
14722;SDS011;7452;55.594;12.986;2023-04-07T00:51:03;4.77;;;3.00;;
14722;SDS011;7452;55.594;12.986;2023-04-07T00:53:32;6.63;;;3.20;;
14722;SDS011;7452;55.594;12.986;2023-04-07T00:55:58;4.97;;;2.90;;
14722;SDS011;7452;55.594;12.986;2023-04-07T00:58:25;3.50;;;2.83;;
14722;SDS011;7452;55.594;12.986;2023-04-07T01:00:54;6.23;;;2.97;;
14722;SDS011;7452;55.594;12.986;2023-04-07T01:03:32;4.33;;;3.00;;
14722;SDS011;7452;55.594;12.986;2023-04-07T01:06:01;4.20;;;3.00;;
14722;SDS011;7452;55.594;12.986;2023-04-07T01:08:32;4.23;;;3.00;;
14722;SDS011;7452;55.594;12.986;2023-04-07T01:11:10;5.03;;;3.20;;
14722;SDS011;7452;55.594;12.986;2023-04-07T01:13:45;6.23;;;3.53;;
14722;SDS011;7452;55.594;12.986;2023-04-07T01:16:16;5.13;;;3.20;;
14722;SDS011;7452;55.594;12.986;2023-04-07T01:18:51;4.90;;;3.00;;
14722;SDS011;7452;55.594;12.986;2023-04-07T01:21:21;6.97;;;3.40;;
14722;SDS011;7452;55.594;12.986;2023-04-07T01:23:59;3.93;;;3.23;;
14722;SDS011;7452;55.594;12.986;2023-04-07T01:26:36;4.27;;;3.40;;
14722;SDS011;7452;55.594;12.986;2023-04-07T01:31:59;4.47;;;3.80;;
14722;SDS011;7452;55.594;12.986;2023-04-07T01:34:28;5.33;;;3.70;;
14722;SDS011;7452;55.594;12.986;2023-04-07T01:36:56;4.50;;;3.83;;
14722;SDS011;7452;55.594;12.986;2023-04-07T01:39:26;5.80;;;4.00;;
14722;SDS011;7452;55.594;12.986;2023-04-07T01:41:54;5.63;;;3.97;;
14722;SDS011;7452;55.594;12.986;2023-04-07T01:44:26;7.67;;;4.40;;
14722;SDS011;7452;55.594;12.986;2023-04-07T01:46:56;7.37;;;4.17;;
14722;SDS011;7452;55.594;12.986;2023-04-07T01:49:23;5.50;;;4.27;;
14722;SDS011;7452;55.594;12.986;2023-04-07T01:51:51;6.17;;;4.90;;
14722;SDS011;7452;55.594;12.986;2023-04-07T01:54:18;7.10;;;4.70;;
14722;SDS011;7452;55.594;12.986;2023-04-07T01:56:49;6.67;;;4.80;;
14722;SDS011;7452;55.594;12.986;2023-04-07T01:59:16;6.40;;;4.87;;
14722;SDS011;7452;55.594;12.986;2023-04-07T02:01:42;5.70;;;4.90;;
14722;SDS011;7452;55.594;12.986;2023-04-07T02:04:11;7.93;;;5.30;;
14722;SDS011;7452;55.594;12.986;2023-04-07T02:06:46;6.43;;;5.23;;
14722;SDS011;7452;55.594;12.986;2023-04-07T02:09:17;5.97;;;5.03;;
14722;SDS011;7452;55.594;12.986;2023-04-07T02:11:47;5.77;;;5.00;;
14722;SDS011;7452;55.594;12.986;2023-04-07T02:14:16;7.40;;;5.00;;
14722;SDS011;7452;55.594;12.986;2023-04-07T02:16:45;6.17;;;5.10;;
14722;SDS011;7452;55.594;12.986;2023-04-07T02:19:14;7.17;;;5.37;;
14722;SDS011;7452;55.594;12.986;2023-04-07T02:21:41;8.67;;;5.40;;
14722;SDS011;7452;55.594;12.986;2023-04-07T02:24:10;6.90;;;5.10;;
14722;SDS011;7452;55.594;12.986;2023-04-07T02:26:38;5.80;;;4.97;;
14722;SDS011;7452;55.594;12.986;2023-04-07T02:29:05;6.43;;;4.60;;
14722;SDS011;7452;55.594;12.986;2023-04-07T02:31:31;5.37;;;4.87;;
14722;SDS011;7452;55.594;12.986;2023-04-07T02:34:00;6.40;;;5.20;;
14722;SDS011;7452;55.594;12.986;2023-04-07T02:36:29;8.70;;;5.03;;
14722;SDS011;7452;55.594;12.986;2023-04-07T02:38:56;7.50;;;5.27;;
14722;SDS011;7452;55.594;12.986;2023-04-07T02:41:23;7.07;;;5.10;;
14722;SDS011;7452;55.594;12.986;2023-04-07T02:43:50;5.93;;;5.33;;
14722;SDS011;7452;55.594;12.986;2023-04-07T02:46:17;7.53;;;5.20;;
14722;SDS011;7452;55.594;12.986;2023-04-07T02:48:44;7.20;;;5.40;;
14722;SDS011;7452;55.594;12.986;2023-04-07T02:51:11;6.70;;;5.20;;
14722;SDS011;7452;55.594;12.986;2023-04-07T02:53:39;8.03;;;5.37;;
14722;SDS011;7452;55.594;12.986;2023-04-07T02:56:06;7.13;;;5.20;;
14722;SDS011;7452;55.594;12.986;2023-04-07T02:58:33;8.80;;;5.40;;
14722;SDS011;7452;55.594;12.986;2023-04-07T03:01:00;7.70;;;5.70;;
14722;SDS011;7452;55.594;12.986;2023-04-07T03:03:27;10.03;;;5.80;;
14722;SDS011;7452;55.594;12.986;2023-04-07T03:05:54;7.40;;;4.77;;
14722;SDS011;7452;55.594;12.986;2023-04-07T03:08:21;7.30;;;4.77;;
14722;SDS011;7452;55.594;12.986;2023-04-07T03:10:49;8.20;;;4.93;;
14722;SDS011;7452;55.594;12.986;2023-04-07T03:13:17;6.23;;;4.90;;
14722;SDS011;7452;55.594;12.986;2023-04-07T03:15:43;6.70;;;4.77;;
14722;SDS011;7452;55.594;12.986;2023-04-07T03:18:11;6.37;;;4.67;;
14722;SDS011;7452;55.594;12.986;2023-04-07T03:20:38;6.27;;;4.67;;
14722;SDS011;7452;55.594;12.986;2023-04-07T03:23:06;5.80;;;5.13;;
14722;SDS011;7452;55.594;12.986;2023-04-07T03:25:32;6.10;;;5.23;;
14722;SDS011;7452;55.594;12.986;2023-04-07T03:28:01;6.77;;;4.57;;
14722;SDS011;7452;55.594;12.986;2023-04-07T03:30:28;7.27;;;5.00;;
14722;SDS011;7452;55.594;12.986;2023-04-07T03:32:55;7.33;;;4.97;;
14722;SDS011;7452;55.594;12.986;2023-04-07T03:35:22;7.17;;;5.17;;
14722;SDS011;7452;55.594;12.986;2023-04-07T03:37:49;6.70;;;5.30;;
14722;SDS011;7452;55.594;12.986;2023-04-07T03:40:15;7.63;;;5.40;;
14722;SDS011;7452;55.594;12.986;2023-04-07T03:42:44;6.40;;;5.10;;
14722;SDS011;7452;55.594;12.986;2023-04-07T03:45:13;6.83;;;4.77;;
14722;SDS011;7452;55.594;12.986;2023-04-07T03:47:40;8.87;;;5.87;;
14722;SDS011;7452;55.594;12.986;2023-04-07T03:50:07;6.43;;;4.93;;
14722;SDS011;7452;55.594;12.986;2023-04-07T03:52:35;7.07;;;4.67;;
14722;SDS011;7452;55.594;12.986;2023-04-07T03:55:02;5.80;;;5.03;;
14722;SDS011;7452;55.594;12.986;2023-04-07T03:57:31;6.87;;;5.13;;
14722;SDS011;7452;55.594;12.986;2023-04-07T03:59:58;5.40;;;4.80;;
14722;SDS011;7452;55.594;12.986;2023-04-07T04:02:26;7.63;;;5.43;;
14722;SDS011;7452;55.594;12.986;2023-04-07T04:04:53;6.53;;;5.03;;
14722;SDS011;7452;55.594;12.986;2023-04-07T04:07:20;6.83;;;4.83;;
14722;SDS011;7452;55.594;12.986;2023-04-07T04:09:47;6.77;;;4.83;;
14722;SDS011;7452;55.594;12.986;2023-04-07T04:12:14;5.67;;;5.07;;
14722;SDS011;7452;55.594;12.986;2023-04-07T04:14:41;6.97;;;5.27;;
14722;SDS011;7452;55.594;12.986;2023-04-07T04:17:08;5.83;;;4.77;;
14722;SDS011;7452;55.594;12.986;2023-04-07T04:19:36;7.00;;;4.83;;
14722;SDS011;7452;55.594;12.986;2023-04-07T04:22:03;6.87;;;5.27;;
14722;SDS011;7452;55.594;12.986;2023-04-07T04:24:30;7.30;;;4.63;;
14722;SDS011;7452;55.594;12.986;2023-04-07T04:26:57;7.73;;;4.40;;
14722;SDS011;7452;55.594;12.986;2023-04-07T04:29:24;5.97;;;4.33;;
14722;SDS011;7452;55.594;12.986;2023-04-07T04:31:51;7.27;;;4.87;;
14722;SDS011;7452;55.594;12.986;2023-04-07T04:34:18;7.93;;;4.33;;
14722;SDS011;7452;55.594;12.986;2023-04-07T04:36:46;6.33;;;4.63;;
14722;SDS011;7452;55.594;12.986;2023-04-07T04:39:13;5.17;;;4.17;;
14722;SDS011;7452;55.594;12.986;2023-04-07T04:41:40;6.83;;;4.57;;
14722;SDS011;7452;55.594;12.986;2023-04-07T04:44:07;5.07;;;4.57;;
14722;SDS011;7452;55.594;12.986;2023-04-07T04:46:34;7.10;;;4.57;;
14722;SDS011;7452;55.594;12.986;2023-04-07T04:49:01;7.93;;;5.00;;
14722;SDS011;7452;55.594;12.986;2023-04-07T04:51:28;6.93;;;4.73;;
14722;SDS011;7452;55.594;12.986;2023-04-07T04:53:56;7.00;;;4.63;;
14722;SDS011;7452;55.594;12.986;2023-04-07T04:56:24;5.40;;;4.90;;
14722;SDS011;7452;55.594;12.986;2023-04-07T04:58:51;5.77;;;4.50;;
14722;SDS011;7452;55.594;12.986;2023-04-07T05:01:18;5.87;;;5.17;;
14722;SDS011;7452;55.594;12.986;2023-04-07T05:03:45;6.93;;;5.07;;
14722;SDS011;7452;55.594;12.986;2023-04-07T05:06:12;8.70;;;4.97;;
14722;SDS011;7452;55.594;12.986;2023-04-07T05:08:39;10.07;;;5.00;;
14722;SDS011;7452;55.594;12.986;2023-04-07T05:11:07;7.43;;;4.93;;
14722;SDS011;7452;55.594;12.986;2023-04-07T05:13:34;6.23;;;4.90;;
14722;SDS011;7452;55.594;12.986;2023-04-07T05:16:01;6.00;;;4.83;;
14722;SDS011;7452;55.594;12.986;2023-04-07T05:18:27;5.80;;;4.77;;
14722;SDS011;7452;55.594;12.986;2023-04-07T05:20:54;5.47;;;4.60;;
14722;SDS011;7452;55.594;12.986;2023-04-07T05:23:21;6.17;;;4.53;;
14722;SDS011;7452;55.594;12.986;2023-04-07T05:25:48;5.00;;;4.50;;
14722;SDS011;7452;55.594;12.986;2023-04-07T05:28:17;6.63;;;4.90;;
14722;SDS011;7452;55.594;12.986;2023-04-07T05:30:44;8.87;;;4.83;;
14722;SDS011;7452;55.594;12.986;2023-04-07T05:33:11;6.10;;;4.60;;
14722;SDS011;7452;55.594;12.986;2023-04-07T05:35:38;5.37;;;4.70;;
14722;SDS011;7452;55.594;12.986;2023-04-07T05:38:05;7.17;;;4.87;;
14722;SDS011;7452;55.594;12.986;2023-04-07T05:40:31;7.07;;;5.00;;
14722;SDS011;7452;55.594;12.986;2023-04-07T05:42:58;5.63;;;4.40;;
14722;SDS011;7452;55.594;12.986;2023-04-07T05:45:27;7.20;;;5.00;;
14722;SDS011;7452;55.594;12.986;2023-04-07T05:47:53;5.53;;;4.93;;
14722;SDS011;7452;55.594;12.986;2023-04-07T05:50:20;5.30;;;4.70;;
14722;SDS011;7452;55.594;12.986;2023-04-07T05:52:47;5.90;;;5.30;;
14722;SDS011;7452;55.594;12.986;2023-04-07T05:55:14;6.17;;;4.93;;
14722;SDS011;7452;55.594;12.986;2023-04-07T05:57:41;6.80;;;5.20;;
14722;SDS011;7452;55.594;12.986;2023-04-07T06:00:09;5.27;;;4.77;;
14722;SDS011;7452;55.594;12.986;2023-04-07T06:02:38;5.50;;;4.87;;
14722;SDS011;7452;55.594;12.986;2023-04-07T06:05:05;6.10;;;5.40;;
14722;SDS011;7452;55.594;12.986;2023-04-07T06:07:32;7.17;;;5.30;;
14722;SDS011;7452;55.594;12.986;2023-04-07T06:09:59;6.20;;;4.90;;
14722;SDS011;7452;55.594;12.986;2023-04-07T06:12:27;6.57;;;5.20;;
14722;SDS011;7452;55.594;12.986;2023-04-07T06:14:54;6.40;;;5.67;;
14722;SDS011;7452;55.594;12.986;2023-04-07T06:17:21;6.63;;;5.00;;
14722;SDS011;7452;55.594;12.986;2023-04-07T06:19:50;5.87;;;4.33;;
14722;SDS011;7452;55.594;12.986;2023-04-07T06:22:17;7.50;;;5.20;;
14722;SDS011;7452;55.594;12.986;2023-04-07T06:24:44;5.60;;;4.80;;
14722;SDS011;7452;55.594;12.986;2023-04-07T06:27:10;6.40;;;4.80;;
14722;SDS011;7452;55.594;12.986;2023-04-07T06:29:37;6.53;;;4.80;;
14722;SDS011;7452;55.594;12.986;2023-04-07T06:32:05;5.83;;;5.20;;
14722;SDS011;7452;55.594;12.986;2023-04-07T06:34:32;7.37;;;5.50;;
14722;SDS011;7452;55.594;12.986;2023-04-07T06:37:01;9.40;;;5.17;;
14722;SDS011;7452;55.594;12.986;2023-04-07T06:39:29;9.27;;;5.10;;
14722;SDS011;7452;55.594;12.986;2023-04-07T06:41:56;5.53;;;4.67;;
14722;SDS011;7452;55.594;12.986;2023-04-07T06:44:23;7.13;;;4.87;;
14722;SDS011;7452;55.594;12.986;2023-04-07T06:46:50;4.97;;;4.47;;
14722;SDS011;7452;55.594;12.986;2023-04-07T06:49:17;6.00;;;4.93;;
14722;SDS011;7452;55.594;12.986;2023-04-07T06:51:44;5.63;;;4.87;;
14722;SDS011;7452;55.594;12.986;2023-04-07T06:54:12;6.10;;;5.00;;
14722;SDS011;7452;55.594;12.986;2023-04-07T06:56:39;7.00;;;4.70;;
14722;SDS011;7452;55.594;12.986;2023-04-07T06:59:07;5.40;;;4.60;;
14722;SDS011;7452;55.594;12.986;2023-04-07T07:01:34;5.77;;;4.63;;
14722;SDS011;7452;55.594;12.986;2023-04-07T07:04:01;6.80;;;5.20;;
14722;SDS011;7452;55.594;12.986;2023-04-07T07:06:29;5.83;;;5.10;;
14722;SDS011;7452;55.594;12.986;2023-04-07T07:08:56;7.33;;;5.03;;
14722;SDS011;7452;55.594;12.986;2023-04-07T07:11:26;5.37;;;4.73;;
14722;SDS011;7452;55.594;12.986;2023-04-07T07:13:53;6.77;;;4.50;;
14722;SDS011;7452;55.594;12.986;2023-04-07T07:16:20;5.80;;;4.83;;
14722;SDS011;7452;55.594;12.986;2023-04-07T07:18:48;8.00;;;5.10;;
14722;SDS011;7452;55.594;12.986;2023-04-07T07:21:16;6.07;;;4.80;;
14722;SDS011;7452;55.594;12.986;2023-04-07T07:23:43;5.10;;;4.57;;
14722;SDS011;7452;55.594;12.986;2023-04-07T07:26:11;6.97;;;5.20;;
14722;SDS011;7452;55.594;12.986;2023-04-07T07:28:39;5.43;;;4.93;;
14722;SDS011;7452;55.594;12.986;2023-04-07T07:31:09;6.57;;;5.17;;
14722;SDS011;7452;55.594;12.986;2023-04-07T07:33:37;6.87;;;5.13;;
14722;SDS011;7452;55.594;12.986;2023-04-07T07:36:05;6.20;;;5.40;;
14722;SDS011;7452;55.594;12.986;2023-04-07T07:38:32;7.03;;;5.30;;
14722;SDS011;7452;55.594;12.986;2023-04-07T07:40:59;5.23;;;4.73;;
14722;SDS011;7452;55.594;12.986;2023-04-07T07:43:26;6.90;;;4.93;;
14722;SDS011;7452;55.594;12.986;2023-04-07T07:45:54;7.43;;;5.20;;
14722;SDS011;7452;55.594;12.986;2023-04-07T07:48:21;6.37;;;5.17;;
14722;SDS011;7452;55.594;12.986;2023-04-07T07:50:48;6.33;;;5.13;;
14722;SDS011;7452;55.594;12.986;2023-04-07T07:53:16;5.00;;;4.50;;
14722;SDS011;7452;55.594;12.986;2023-04-07T07:55:43;5.97;;;5.00;;
14722;SDS011;7452;55.594;12.986;2023-04-07T07:58:10;7.07;;;4.47;;
14722;SDS011;7452;55.594;12.986;2023-04-07T08:00:37;5.07;;;4.00;;
14722;SDS011;7452;55.594;12.986;2023-04-07T08:03:06;5.53;;;3.73;;
14722;SDS011;7452;55.594;12.986;2023-04-07T08:05:33;5.57;;;3.83;;
14722;SDS011;7452;55.594;12.986;2023-04-07T08:08:00;4.70;;;3.77;;
14722;SDS011;7452;55.594;12.986;2023-04-07T08:10:27;4.30;;;3.67;;
14722;SDS011;7452;55.594;12.986;2023-04-07T08:12:54;4.43;;;3.50;;
14722;SDS011;7452;55.594;12.986;2023-04-07T08:15:21;3.90;;;3.50;;
14722;SDS011;7452;55.594;12.986;2023-04-07T08:17:50;3.47;;;3.00;;
14722;SDS011;7452;55.594;12.986;2023-04-07T08:20:19;3.47;;;3.17;;
14722;SDS011;7452;55.594;12.986;2023-04-07T08:22:47;3.70;;;3.40;;
14722;SDS011;7452;55.594;12.986;2023-04-07T08:25:14;4.07;;;3.17;;
14722;SDS011;7452;55.594;12.986;2023-04-07T08:27:40;3.30;;;3.00;;
14722;SDS011;7452;55.594;12.986;2023-04-07T08:30:08;4.53;;;3.33;;
14722;SDS011;7452;55.594;12.986;2023-04-07T08:32:35;3.73;;;2.90;;
14722;SDS011;7452;55.594;12.986;2023-04-07T08:35:02;3.23;;;2.70;;
14722;SDS011;7452;55.594;12.986;2023-04-07T08:37:31;4.27;;;3.10;;
14722;SDS011;7452;55.594;12.986;2023-04-07T08:39:59;3.90;;;2.60;;
14722;SDS011;7452;55.594;12.986;2023-04-07T08:42:27;4.27;;;2.97;;
14722;SDS011;7452;55.594;12.986;2023-04-07T08:44:55;2.50;;;2.30;;
14722;SDS011;7452;55.594;12.986;2023-04-07T08:47:24;2.67;;;2.47;;
14722;SDS011;7452;55.594;12.986;2023-04-07T08:49:52;3.13;;;2.70;;
14722;SDS011;7452;55.594;12.986;2023-04-07T08:52:21;3.77;;;2.90;;
14722;SDS011;7452;55.594;12.986;2023-04-07T08:54:54;3.13;;;2.63;;
14722;SDS011;7452;55.594;12.986;2023-04-07T08:57:22;2.87;;;2.50;;
14722;SDS011;7452;55.594;12.986;2023-04-07T08:59:49;3.13;;;2.60;;
14722;SDS011;7452;55.594;12.986;2023-04-07T09:02:17;3.07;;;2.37;;
14722;SDS011;7452;55.594;12.986;2023-04-07T09:04:45;3.57;;;2.50;;
14722;SDS011;7452;55.594;12.986;2023-04-07T09:07:12;2.70;;;2.50;;
14722;SDS011;7452;55.594;12.986;2023-04-07T09:09:39;3.10;;;2.30;;
14722;SDS011;7452;55.594;12.986;2023-04-07T09:12:08;3.07;;;2.70;;
14722;SDS011;7452;55.594;12.986;2023-04-07T09:14:35;3.57;;;2.73;;
14722;SDS011;7452;55.594;12.986;2023-04-07T09:17:02;2.33;;;2.13;;
14722;SDS011;7452;55.594;12.986;2023-04-07T09:19:29;2.60;;;2.30;;
14722;SDS011;7452;55.594;12.986;2023-04-07T09:21:59;3.63;;;2.23;;
14722;SDS011;7452;55.594;12.986;2023-04-07T09:24:27;3.20;;;2.57;;
14722;SDS011;7452;55.594;12.986;2023-04-07T09:27:09;2.80;;;2.20;;
14722;SDS011;7452;55.594;12.986;2023-04-07T09:29:37;3.17;;;2.40;;
14722;SDS011;7452;55.594;12.986;2023-04-07T09:32:08;3.33;;;2.17;;
14722;SDS011;7452;55.594;12.986;2023-04-07T09:34:36;2.47;;;2.10;;
14722;SDS011;7452;55.594;12.986;2023-04-07T09:37:04;3.13;;;2.30;;
14722;SDS011;7452;55.594;12.986;2023-04-07T09:39:33;2.50;;;2.30;;
14722;SDS011;7452;55.594;12.986;2023-04-07T09:42:16;2.67;;;2.20;;
14722;SDS011;7452;55.594;12.986;2023-04-07T09:44:43;2.33;;;2.13;;
14722;SDS011;7452;55.594;12.986;2023-04-07T09:47:12;2.63;;;2.30;;
14722;SDS011;7452;55.594;12.986;2023-04-07T09:49:47;2.50;;;2.10;;
14722;SDS011;7452;55.594;12.986;2023-04-07T09:52:16;2.93;;;2.10;;
14722;SDS011;7452;55.594;12.986;2023-04-07T09:54:44;2.30;;;2.07;;
14722;SDS011;7452;55.594;12.986;2023-04-07T09:57:13;3.40;;;1.87;;
14722;SDS011;7452;55.594;12.986;2023-04-07T09:59:43;3.03;;;2.20;;
14722;SDS011;7452;55.594;12.986;2023-04-07T10:02:11;2.93;;;2.20;;
14722;SDS011;7452;55.594;12.986;2023-04-07T10:04:37;3.03;;;2.37;;
14722;SDS011;7452;55.594;12.986;2023-04-07T10:07:05;2.73;;;2.23;;
14722;SDS011;7452;55.594;12.986;2023-04-07T10:09:32;2.53;;;2.13;;
14722;SDS011;7452;55.594;12.986;2023-04-07T10:11:59;3.20;;;2.20;;
14722;SDS011;7452;55.594;12.986;2023-04-07T10:14:27;3.37;;;2.53;;
14722;SDS011;7452;55.594;12.986;2023-04-07T10:16:57;2.50;;;2.30;;
14722;SDS011;7452;55.594;12.986;2023-04-07T10:19:25;3.30;;;2.17;;
14722;SDS011;7452;55.594;12.986;2023-04-07T10:21:56;3.17;;;2.37;;
14722;SDS011;7452;55.594;12.986;2023-04-07T10:24:28;2.77;;;2.33;;
14722;SDS011;7452;55.594;12.986;2023-04-07T10:27:08;2.60;;;2.40;;
14722;SDS011;7452;55.594;12.986;2023-04-07T10:29:39;5.30;;;2.60;;
14722;SDS011;7452;55.594;12.986;2023-04-07T10:32:13;2.77;;;2.20;;
14722;SDS011;7452;55.594;12.986;2023-04-07T10:34:56;2.40;;;2.20;;
14722;SDS011;7452;55.594;12.986;2023-04-07T10:37:26;2.50;;;2.30;;
14722;SDS011;7452;55.594;12.986;2023-04-07T10:42:54;2.73;;;2.40;;
14722;SDS011;7452;55.594;12.986;2023-04-07T10:48:25;2.87;;;2.13;;
14722;SDS011;7452;55.594;12.986;2023-04-07T10:51:13;2.63;;;2.43;;
14722;SDS011;7452;55.594;12.986;2023-04-07T10:59:40;5.33;;;2.60;;
14722;SDS011;7452;55.594;12.986;2023-04-07T11:04:58;3.63;;;2.10;;
14722;SDS011;7452;55.594;12.986;2023-04-07T11:10:15;3.07;;;2.00;;
14722;SDS011;7452;55.594;12.986;2023-04-07T11:12:43;2.87;;;1.90;;
14722;SDS011;7452;55.594;12.986;2023-04-07T11:15:22;2.83;;;1.90;;
14722;SDS011;7452;55.594;12.986;2023-04-07T11:20:40;2.20;;;1.90;;
14722;SDS011;7452;55.594;12.986;2023-04-07T11:23:12;1.73;;;1.63;;
14722;SDS011;7452;55.594;12.986;2023-04-07T11:25:41;2.40;;;1.77;;
14722;SDS011;7452;55.594;12.986;2023-04-07T11:28:09;1.90;;;1.70;;
14722;SDS011;7452;55.594;12.986;2023-04-07T11:30:37;3.00;;;1.80;;
14722;SDS011;7452;55.594;12.986;2023-04-07T11:33:13;2.00;;;1.80;;
14722;SDS011;7452;55.594;12.986;2023-04-07T11:35:47;2.30;;;2.10;;
14722;SDS011;7452;55.594;12.986;2023-04-07T11:38:19;2.20;;;1.97;;
14722;SDS011;7452;55.594;12.986;2023-04-07T11:40:47;2.63;;;1.80;;
14722;SDS011;7452;55.594;12.986;2023-04-07T11:43:14;2.70;;;2.27;;
14722;SDS011;7452;55.594;12.986;2023-04-07T11:45:42;2.30;;;2.00;;
14722;SDS011;7452;55.594;12.986;2023-04-07T11:48:24;4.03;;;2.47;;
14722;SDS011;7452;55.594;12.986;2023-04-07T11:50:53;2.47;;;2.07;;
14722;SDS011;7452;55.594;12.986;2023-04-07T11:53:24;2.90;;;1.87;;
14722;SDS011;7452;55.594;12.986;2023-04-07T11:55:59;2.67;;;2.10;;
14722;SDS011;7452;55.594;12.986;2023-04-07T11:58:27;3.60;;;1.90;;
14722;SDS011;7452;55.594;12.986;2023-04-07T12:00:54;2.30;;;2.10;;
14722;SDS011;7452;55.594;12.986;2023-04-07T12:03:21;2.10;;;1.90;;
14722;SDS011;7452;55.594;12.986;2023-04-07T12:05:48;2.90;;;2.20;;
14722;SDS011;7452;55.594;12.986;2023-04-07T12:08:17;1.70;;;1.60;;
14722;SDS011;7452;55.594;12.986;2023-04-07T12:10:45;2.57;;;1.87;;
14722;SDS011;7452;55.594;12.986;2023-04-07T12:13:12;2.07;;;1.80;;
14722;SDS011;7452;55.594;12.986;2023-04-07T12:15:40;2.90;;;2.00;;
14722;SDS011;7452;55.594;12.986;2023-04-07T12:18:07;2.33;;;1.80;;
14722;SDS011;7452;55.594;12.986;2023-04-07T12:20:40;2.97;;;1.77;;
14722;SDS011;7452;55.594;12.986;2023-04-07T12:23:07;2.27;;;1.87;;
14722;SDS011;7452;55.594;12.986;2023-04-07T12:25:36;2.07;;;1.93;;
14722;SDS011;7452;55.594;12.986;2023-04-07T12:28:03;2.57;;;2.20;;
14722;SDS011;7452;55.594;12.986;2023-04-07T12:30:30;2.20;;;1.93;;
14722;SDS011;7452;55.594;12.986;2023-04-07T12:32:57;1.90;;;1.70;;
14722;SDS011;7452;55.594;12.986;2023-04-07T12:35:24;3.17;;;2.10;;
14722;SDS011;7452;55.594;12.986;2023-04-07T12:37:51;2.13;;;1.93;;
14722;SDS011;7452;55.594;12.986;2023-04-07T12:40:18;2.70;;;2.00;;
14722;SDS011;7452;55.594;12.986;2023-04-07T12:42:46;2.07;;;1.87;;
14722;SDS011;7452;55.594;12.986;2023-04-07T12:45:13;2.73;;;1.90;;
14722;SDS011;7452;55.594;12.986;2023-04-07T12:47:41;2.33;;;2.07;;
14722;SDS011;7452;55.594;12.986;2023-04-07T12:50:10;1.97;;;1.87;;
14722;SDS011;7452;55.594;12.986;2023-04-07T12:52:37;2.47;;;1.80;;
14722;SDS011;7452;55.594;12.986;2023-04-07T12:55:05;2.40;;;2.20;;
14722;SDS011;7452;55.594;12.986;2023-04-07T12:57:32;4.23;;;2.17;;
14722;SDS011;7452;55.594;12.986;2023-04-07T13:00:00;3.10;;;2.00;;
14722;SDS011;7452;55.594;12.986;2023-04-07T13:02:27;2.57;;;2.20;;
14722;SDS011;7452;55.594;12.986;2023-04-07T13:04:55;2.23;;;1.80;;
14722;SDS011;7452;55.594;12.986;2023-04-07T13:07:21;1.90;;;1.80;;
14722;SDS011;7452;55.594;12.986;2023-04-07T13:09:48;3.43;;;2.20;;
14722;SDS011;7452;55.594;12.986;2023-04-07T13:12:15;2.70;;;2.27;;
14722;SDS011;7452;55.594;12.986;2023-04-07T13:14:42;2.53;;;2.30;;
14722;SDS011;7452;55.594;12.986;2023-04-07T13:17:11;2.40;;;2.20;;
14722;SDS011;7452;55.594;12.986;2023-04-07T13:19:38;2.27;;;2.10;;
14722;SDS011;7452;55.594;12.986;2023-04-07T13:22:05;3.37;;;2.43;;
14722;SDS011;7452;55.594;12.986;2023-04-07T13:24:32;2.60;;;2.20;;
14722;SDS011;7452;55.594;12.986;2023-04-07T13:26:59;4.13;;;2.33;;
14722;SDS011;7452;55.594;12.986;2023-04-07T13:29:27;2.33;;;2.00;;
14722;SDS011;7452;55.594;12.986;2023-04-07T13:32:03;3.60;;;2.30;;
14722;SDS011;7452;55.594;12.986;2023-04-07T13:34:32;2.87;;;2.37;;
14722;SDS011;7452;55.594;12.986;2023-04-07T13:36:59;4.03;;;2.70;;
14722;SDS011;7452;55.594;12.986;2023-04-07T13:39:27;2.93;;;2.63;;
14722;SDS011;7452;55.594;12.986;2023-04-07T13:41:54;2.70;;;2.50;;
14722;SDS011;7452;55.594;12.986;2023-04-07T13:44:21;2.87;;;2.33;;
14722;SDS011;7452;55.594;12.986;2023-04-07T13:46:48;3.23;;;2.60;;
14722;SDS011;7452;55.594;12.986;2023-04-07T13:49:16;3.10;;;2.80;;
14722;SDS011;7452;55.594;12.986;2023-04-07T13:51:45;3.63;;;2.63;;
14722;SDS011;7452;55.594;12.986;2023-04-07T13:54:12;3.07;;;2.70;;
14722;SDS011;7452;55.594;12.986;2023-04-07T13:56:38;2.87;;;2.53;;
14722;SDS011;7452;55.594;12.986;2023-04-07T13:59:05;5.60;;;2.60;;
14722;SDS011;7452;55.594;12.986;2023-04-07T14:01:33;3.13;;;2.80;;
14722;SDS011;7452;55.594;12.986;2023-04-07T14:04:03;2.73;;;2.53;;
14722;SDS011;7452;55.594;12.986;2023-04-07T14:06:30;2.90;;;2.70;;
14722;SDS011;7452;55.594;12.986;2023-04-07T14:08:58;3.00;;;2.80;;
14722;SDS011;7452;55.594;12.986;2023-04-07T14:11:25;4.37;;;2.80;;
14722;SDS011;7452;55.594;12.986;2023-04-07T14:13:54;2.47;;;2.27;;
14722;SDS011;7452;55.594;12.986;2023-04-07T14:16:23;3.40;;;2.60;;
14722;SDS011;7452;55.594;12.986;2023-04-07T14:18:50;3.27;;;3.00;;
14722;SDS011;7452;55.594;12.986;2023-04-07T14:21:17;3.40;;;2.43;;
14722;SDS011;7452;55.594;12.986;2023-04-07T14:23:44;3.93;;;2.77;;
14722;SDS011;7452;55.594;12.986;2023-04-07T14:26:12;2.53;;;2.30;;
14722;SDS011;7452;55.594;12.986;2023-04-07T14:28:39;2.67;;;2.47;;
14722;SDS011;7452;55.594;12.986;2023-04-07T14:31:10;2.83;;;2.63;;
14722;SDS011;7452;55.594;12.986;2023-04-07T14:33:38;2.90;;;2.70;;
14722;SDS011;7452;55.594;12.986;2023-04-07T14:36:05;3.10;;;2.80;;
14722;SDS011;7452;55.594;12.986;2023-04-07T14:38:32;3.33;;;3.03;;
14722;SDS011;7452;55.594;12.986;2023-04-07T14:40:58;2.97;;;2.77;;
14722;SDS011;7452;55.594;12.986;2023-04-07T14:43:28;5.23;;;3.20;;
14722;SDS011;7452;55.594;12.986;2023-04-07T14:45:55;3.50;;;3.20;;
14722;SDS011;7452;55.594;12.986;2023-04-07T14:48:23;3.80;;;3.10;;
14722;SDS011;7452;55.594;12.986;2023-04-07T14:50:50;3.40;;;3.10;;
14722;SDS011;7452;55.594;12.986;2023-04-07T14:53:17;4.30;;;3.03;;
14722;SDS011;7452;55.594;12.986;2023-04-07T14:55:45;3.87;;;3.20;;
14722;SDS011;7452;55.594;12.986;2023-04-07T14:58:12;4.37;;;2.80;;
14722;SDS011;7452;55.594;12.986;2023-04-07T15:00:40;3.10;;;2.80;;
14722;SDS011;7452;55.594;12.986;2023-04-07T15:03:08;3.03;;;2.70;;
14722;SDS011;7452;55.594;12.986;2023-04-07T15:05:35;3.30;;;3.00;;
14722;SDS011;7452;55.594;12.986;2023-04-07T15:08:02;3.27;;;2.93;;
14722;SDS011;7452;55.594;12.986;2023-04-07T15:10:28;4.20;;;3.37;;
14722;SDS011;7452;55.594;12.986;2023-04-07T15:12:59;2.80;;;2.60;;
14722;SDS011;7452;55.594;12.986;2023-04-07T15:15:26;3.47;;;3.17;;
14722;SDS011;7452;55.594;12.986;2023-04-07T15:17:54;3.63;;;2.80;;